sensor_id;sensor_type;location;lat;lon;timestamp;P1;durP1;ratioP1;P2;durP2;ratioP2
77326;SDS011;66399;52.322;20.980;2023-02-28T00:03:28;19.80;;;7.70;;
77326;SDS011;66399;52.322;20.980;2023-02-28T00:07:34;24.90;;;9.60;;
77326;SDS011;66399;52.322;20.980;2023-02-28T00:11:39;26.80;;;9.20;;
77326;SDS011;66399;52.322;20.980;2023-02-28T00:15:45;25.10;;;9.60;;
77326;SDS011;66399;52.322;20.980;2023-02-28T00:19:51;22.90;;;9.00;;
77326;SDS011;66399;52.322;20.980;2023-02-28T00:23:57;23.90;;;9.50;;
77326;SDS011;66399;52.322;20.980;2023-02-28T00:28:02;39.70;;;12.10;;
77326;SDS011;66399;52.322;20.980;2023-02-28T00:32:08;33.20;;;11.80;;
77326;SDS011;66399;52.322;20.980;2023-02-28T00:36:15;26.50;;;9.90;;
77326;SDS011;66399;52.322;20.980;2023-02-28T00:40:20;29.90;;;10.20;;
77326;SDS011;66399;52.322;20.980;2023-02-28T00:44:25;32.80;;;10.90;;
77326;SDS011;66399;52.322;20.980;2023-02-28T00:48:31;33.70;;;11.50;;
77326;SDS011;66399;52.322;20.980;2023-02-28T00:52:36;41.00;;;12.00;;
77326;SDS011;66399;52.322;20.980;2023-02-28T00:56:42;30.40;;;11.40;;
77326;SDS011;66399;52.322;20.980;2023-02-28T01:00:52;31.00;;;11.30;;
77326;SDS011;66399;52.322;20.980;2023-02-28T01:04:59;29.90;;;11.00;;
77326;SDS011;66399;52.322;20.980;2023-02-28T01:09:05;29.80;;;10.30;;
77326;SDS011;66399;52.322;20.980;2023-02-28T01:13:11;29.10;;;10.10;;
77326;SDS011;66399;52.322;20.980;2023-02-28T01:17:16;22.80;;;8.50;;
77326;SDS011;66399;52.322;20.980;2023-02-28T01:21:22;30.60;;;9.60;;
77326;SDS011;66399;52.322;20.980;2023-02-28T01:25:27;24.60;;;8.50;;
77326;SDS011;66399;52.322;20.980;2023-02-28T01:29:32;29.40;;;9.10;;
77326;SDS011;66399;52.322;20.980;2023-02-28T01:33:38;27.10;;;8.20;;
77326;SDS011;66399;52.322;20.980;2023-02-28T01:37:44;39.90;;;12.30;;
77326;SDS011;66399;52.322;20.980;2023-02-28T01:41:49;34.40;;;11.00;;
77326;SDS011;66399;52.322;20.980;2023-02-28T01:45:56;40.00;;;12.10;;
77326;SDS011;66399;52.322;20.980;2023-02-28T01:50:04;36.40;;;10.90;;
77326;SDS011;66399;52.322;20.980;2023-02-28T01:54:12;36.20;;;10.80;;
77326;SDS011;66399;52.322;20.980;2023-02-28T01:58:18;30.70;;;10.20;;
77326;SDS011;66399;52.322;20.980;2023-02-28T02:02:26;30.90;;;10.20;;
77326;SDS011;66399;52.322;20.980;2023-02-28T02:06:34;29.90;;;9.50;;
77326;SDS011;66399;52.322;20.980;2023-02-28T02:10:41;35.20;;;9.30;;
77326;SDS011;66399;52.322;20.980;2023-02-28T02:14:50;29.40;;;10.10;;
77326;SDS011;66399;52.322;20.980;2023-02-28T02:18:57;32.10;;;10.30;;
77326;SDS011;66399;52.322;20.980;2023-02-28T02:27:29;31.60;;;11.10;;
77326;SDS011;66399;52.322;20.980;2023-02-28T02:31:45;33.30;;;11.10;;
77326;SDS011;66399;52.322;20.980;2023-02-28T02:35:56;31.40;;;9.30;;
77326;SDS011;66399;52.322;20.980;2023-02-28T02:40:08;30.70;;;10.20;;
77326;SDS011;66399;52.322;20.980;2023-02-28T02:44:17;29.60;;;11.00;;
77326;SDS011;66399;52.322;20.980;2023-02-28T02:48:25;31.90;;;11.20;;
77326;SDS011;66399;52.322;20.980;2023-02-28T02:52:32;28.30;;;10.60;;
77326;SDS011;66399;52.322;20.980;2023-02-28T02:56:38;29.30;;;10.20;;
77326;SDS011;66399;52.322;20.980;2023-02-28T03:00:45;30.70;;;11.00;;
77326;SDS011;66399;52.322;20.980;2023-02-28T03:04:56;31.80;;;10.70;;
77326;SDS011;66399;52.322;20.980;2023-02-28T03:09:04;26.40;;;8.90;;
77326;SDS011;66399;52.322;20.980;2023-02-28T03:13:14;29.90;;;10.50;;
77326;SDS011;66399;52.322;20.980;2023-02-28T03:21:45;23.80;;;9.50;;
77326;SDS011;66399;52.322;20.980;2023-02-28T03:25:56;25.30;;;9.00;;
77326;SDS011;66399;52.322;20.980;2023-02-28T03:30:05;27.80;;;9.40;;
77326;SDS011;66399;52.322;20.980;2023-02-28T03:34:15;30.80;;;10.00;;
77326;SDS011;66399;52.322;20.980;2023-02-28T03:38:24;30.70;;;10.10;;
77326;SDS011;66399;52.322;20.980;2023-02-28T03:42:31;30.40;;;10.30;;
77326;SDS011;66399;52.322;20.980;2023-02-28T03:46:37;29.80;;;9.20;;
77326;SDS011;66399;52.322;20.980;2023-02-28T03:50:44;31.90;;;9.70;;
77326;SDS011;66399;52.322;20.980;2023-02-28T03:54:50;26.20;;;8.80;;
77326;SDS011;66399;52.322;20.980;2023-02-28T03:58:58;21.30;;;8.30;;
77326;SDS011;66399;52.322;20.980;2023-02-28T04:03:06;30.20;;;9.90;;
77326;SDS011;66399;52.322;20.980;2023-02-28T04:07:11;31.30;;;10.40;;
77326;SDS011;66399;52.322;20.980;2023-02-28T04:11:19;26.50;;;9.60;;
77326;SDS011;66399;52.322;20.980;2023-02-28T04:15:27;29.50;;;9.90;;
77326;SDS011;66399;52.322;20.980;2023-02-28T04:19:33;27.00;;;8.80;;
77326;SDS011;66399;52.322;20.980;2023-02-28T04:23:39;28.20;;;8.40;;
77326;SDS011;66399;52.322;20.980;2023-02-28T04:27:44;27.00;;;9.10;;
77326;SDS011;66399;52.322;20.980;2023-02-28T04:31:50;22.60;;;8.60;;
77326;SDS011;66399;52.322;20.980;2023-02-28T04:36:01;25.60;;;8.60;;
77326;SDS011;66399;52.322;20.980;2023-02-28T04:40:08;28.10;;;9.80;;
77326;SDS011;66399;52.322;20.980;2023-02-28T04:44:14;26.80;;;8.60;;
77326;SDS011;66399;52.322;20.980;2023-02-28T04:48:20;27.80;;;8.90;;
77326;SDS011;66399;52.322;20.980;2023-02-28T04:52:26;30.20;;;9.80;;
77326;SDS011;66399;52.322;20.980;2023-02-28T04:56:32;25.10;;;9.20;;
77326;SDS011;66399;52.322;20.980;2023-02-28T05:00:37;31.10;;;9.70;;
77326;SDS011;66399;52.322;20.980;2023-02-28T05:04:43;19.00;;;7.80;;
77326;SDS011;66399;52.322;20.980;2023-02-28T05:08:48;25.40;;;8.80;;
77326;SDS011;66399;52.322;20.980;2023-02-28T05:12:54;31.20;;;9.10;;
77326;SDS011;66399;52.322;20.980;2023-02-28T05:16:59;32.30;;;11.00;;
77326;SDS011;66399;52.322;20.980;2023-02-28T05:21:05;34.70;;;10.40;;
77326;SDS011;66399;52.322;20.980;2023-02-28T05:25:11;33.50;;;10.30;;
77326;SDS011;66399;52.322;20.980;2023-02-28T05:29:18;32.90;;;10.10;;
77326;SDS011;66399;52.322;20.980;2023-02-28T05:33:24;36.30;;;11.00;;
77326;SDS011;66399;52.322;20.980;2023-02-28T05:37:29;27.00;;;9.20;;
77326;SDS011;66399;52.322;20.980;2023-02-28T05:41:37;34.00;;;9.70;;
77326;SDS011;66399;52.322;20.980;2023-02-28T05:45:42;25.00;;;8.80;;
77326;SDS011;66399;52.322;20.980;2023-02-28T05:49:47;22.20;;;8.20;;
77326;SDS011;66399;52.322;20.980;2023-02-28T05:53:53;29.70;;;8.90;;
77326;SDS011;66399;52.322;20.980;2023-02-28T05:57:58;30.80;;;9.80;;
77326;SDS011;66399;52.322;20.980;2023-02-28T06:02:03;26.70;;;9.20;;
77326;SDS011;66399;52.322;20.980;2023-02-28T06:06:08;29.20;;;10.30;;
77326;SDS011;66399;52.322;20.980;2023-02-28T06:10:14;29.00;;;9.90;;
77326;SDS011;66399;52.322;20.980;2023-02-28T06:14:19;34.10;;;10.20;;
77326;SDS011;66399;52.322;20.980;2023-02-28T06:18:24;34.90;;;10.10;;
77326;SDS011;66399;52.322;20.980;2023-02-28T06:22:30;35.30;;;11.90;;
77326;SDS011;66399;52.322;20.980;2023-02-28T06:26:35;30.40;;;10.50;;
77326;SDS011;66399;52.322;20.980;2023-02-28T06:30:40;33.70;;;11.10;;
77326;SDS011;66399;52.322;20.980;2023-02-28T06:34:49;34.70;;;10.80;;
77326;SDS011;66399;52.322;20.980;2023-02-28T06:38:54;40.10;;;11.90;;
77326;SDS011;66399;52.322;20.980;2023-02-28T06:43:00;40.20;;;12.50;;
77326;SDS011;66399;52.322;20.980;2023-02-28T06:47:05;35.30;;;11.10;;
77326;SDS011;66399;52.322;20.980;2023-02-28T06:51:11;39.10;;;11.90;;
77326;SDS011;66399;52.322;20.980;2023-02-28T06:55:18;41.00;;;12.90;;
77326;SDS011;66399;52.322;20.980;2023-02-28T06:59:23;45.80;;;14.40;;
77326;SDS011;66399;52.322;20.980;2023-02-28T07:03:29;46.70;;;14.60;;
77326;SDS011;66399;52.322;20.980;2023-02-28T07:07:37;45.50;;;13.90;;
77326;SDS011;66399;52.322;20.980;2023-02-28T07:11:46;45.60;;;14.50;;
77326;SDS011;66399;52.322;20.980;2023-02-28T07:15:55;46.90;;;15.30;;
77326;SDS011;66399;52.322;20.980;2023-02-28T07:20:01;39.10;;;12.80;;
77326;SDS011;66399;52.322;20.980;2023-02-28T07:24:11;34.50;;;11.40;;
77326;SDS011;66399;52.322;20.980;2023-02-28T07:28:19;34.90;;;11.20;;
77326;SDS011;66399;52.322;20.980;2023-02-28T07:32:39;24.90;;;9.60;;
77326;SDS011;66399;52.322;20.980;2023-02-28T07:36:54;15.60;;;5.60;;
77326;SDS011;66399;52.322;20.980;2023-02-28T07:40:59;13.70;;;5.50;;
77326;SDS011;66399;52.322;20.980;2023-02-28T07:49:58;7.00;;;3.00;;
77326;SDS011;66399;52.322;20.980;2023-02-28T07:54:11;9.00;;;4.00;;
77326;SDS011;66399;52.322;20.980;2023-02-28T07:58:20;8.20;;;3.30;;
77326;SDS011;66399;52.322;20.980;2023-02-28T08:06:51;5.80;;;2.40;;
77326;SDS011;66399;52.322;20.980;2023-02-28T08:10:57;9.50;;;3.50;;
77326;SDS011;66399;52.322;20.980;2023-02-28T08:15:11;7.20;;;2.60;;
77326;SDS011;66399;52.322;20.980;2023-02-28T08:19:17;8.10;;;3.50;;
77326;SDS011;66399;52.322;20.980;2023-02-28T08:28:13;12.30;;;3.80;;
77326;SDS011;66399;52.322;20.980;2023-02-28T08:32:19;9.10;;;3.60;;
77326;SDS011;66399;52.322;20.980;2023-02-28T08:36:36;10.40;;;3.70;;
77326;SDS011;66399;52.322;20.980;2023-02-28T08:40:45;9.70;;;3.60;;
77326;SDS011;66399;52.322;20.980;2023-02-28T08:44:51;7.20;;;3.00;;
77326;SDS011;66399;52.322;20.980;2023-02-28T08:48:56;9.90;;;3.10;;
77326;SDS011;66399;52.322;20.980;2023-02-28T08:53:07;6.90;;;2.80;;
77326;SDS011;66399;52.322;20.980;2023-02-28T08:57:12;7.50;;;3.10;;
77326;SDS011;66399;52.322;20.980;2023-02-28T09:01:18;7.80;;;3.40;;
77326;SDS011;66399;52.322;20.980;2023-02-28T09:09:34;9.60;;;3.10;;
77326;SDS011;66399;52.322;20.980;2023-02-28T09:13:39;7.10;;;3.40;;
77326;SDS011;66399;52.322;20.980;2023-02-28T09:21:59;9.20;;;3.90;;
77326;SDS011;66399;52.322;20.980;2023-02-28T09:26:04;8.80;;;3.80;;
77326;SDS011;66399;52.322;20.980;2023-02-28T09:52:42;7.30;;;3.50;;
77326;SDS011;66399;52.322;20.980;2023-02-28T09:56:51;8.50;;;3.50;;
77326;SDS011;66399;52.322;20.980;2023-02-28T10:01:05;9.40;;;3.60;;
77326;SDS011;66399;52.322;20.980;2023-02-28T10:09:35;7.50;;;3.10;;
77326;SDS011;66399;52.322;20.980;2023-02-28T10:13:43;8.20;;;3.20;;
77326;SDS011;66399;52.322;20.980;2023-02-28T10:17:56;7.10;;;3.30;;
77326;SDS011;66399;52.322;20.980;2023-02-28T10:26:59;6.60;;;2.80;;
77326;SDS011;66399;52.322;20.980;2023-02-28T10:31:05;8.80;;;3.80;;
77326;SDS011;66399;52.322;20.980;2023-02-28T10:35:24;7.80;;;3.40;;
77326;SDS011;66399;52.322;20.980;2023-02-28T10:39:37;10.00;;;4.20;;
77326;SDS011;66399;52.322;20.980;2023-02-28T10:43:52;8.20;;;3.90;;
77326;SDS011;66399;52.322;20.980;2023-02-28T10:47:58;10.40;;;3.90;;
77326;SDS011;66399;52.322;20.980;2023-02-28T11:10:28;8.40;;;3.80;;
77326;SDS011;66399;52.322;20.980;2023-02-28T11:19:28;6.20;;;3.10;;
77326;SDS011;66399;52.322;20.980;2023-02-28T11:23:51;5.80;;;3.20;;
77326;SDS011;66399;52.322;20.980;2023-02-28T11:27:57;7.10;;;3.40;;
77326;SDS011;66399;52.322;20.980;2023-02-28T11:59:03;9.30;;;4.30;;
77326;SDS011;66399;52.322;20.980;2023-02-28T12:07:35;8.10;;;3.40;;
77326;SDS011;66399;52.322;20.980;2023-02-28T12:12:02;7.10;;;3.20;;
77326;SDS011;66399;52.322;20.980;2023-02-28T12:20:35;8.80;;;4.20;;
77326;SDS011;66399;52.322;20.980;2023-02-28T12:28:57;9.20;;;3.90;;
77326;SDS011;66399;52.322;20.980;2023-02-28T12:33:04;7.70;;;4.00;;
77326;SDS011;66399;52.322;20.980;2023-02-28T12:37:14;8.20;;;4.10;;
77326;SDS011;66399;52.322;20.980;2023-02-28T12:41:22;7.00;;;3.30;;
77326;SDS011;66399;52.322;20.980;2023-02-28T12:45:41;7.60;;;3.50;;
77326;SDS011;66399;52.322;20.980;2023-02-28T12:49:49;11.10;;;3.60;;
77326;SDS011;66399;52.322;20.980;2023-02-28T12:58:26;9.30;;;4.10;;
77326;SDS011;66399;52.322;20.980;2023-02-28T13:07:03;6.80;;;3.30;;
77326;SDS011;66399;52.322;20.980;2023-02-28T13:16:05;8.60;;;3.40;;
77326;SDS011;66399;52.322;20.980;2023-02-28T13:29:02;4.80;;;2.50;;
77326;SDS011;66399;52.322;20.980;2023-02-28T13:33:26;7.10;;;3.30;;
77326;SDS011;66399;52.322;20.980;2023-02-28T13:37:36;7.50;;;3.60;;
77326;SDS011;66399;52.322;20.980;2023-02-28T13:46:21;3.70;;;1.80;;
77326;SDS011;66399;52.322;20.980;2023-02-28T13:54:58;6.50;;;2.90;;
77326;SDS011;66399;52.322;20.980;2023-02-28T14:17:02;5.90;;;2.80;;
77326;SDS011;66399;52.322;20.980;2023-02-28T14:21:13;9.50;;;4.10;;
77326;SDS011;66399;52.322;20.980;2023-02-28T14:25:24;8.00;;;3.50;;
77326;SDS011;66399;52.322;20.980;2023-02-28T14:34:13;6.00;;;3.30;;
77326;SDS011;66399;52.322;20.980;2023-02-28T14:38:32;6.50;;;3.50;;
77326;SDS011;66399;52.322;20.980;2023-02-28T14:42:38;6.10;;;3.00;;
77326;SDS011;66399;52.322;20.980;2023-02-28T14:46:48;9.20;;;3.50;;
77326;SDS011;66399;52.322;20.980;2023-02-28T14:50:55;7.70;;;2.80;;
77326;SDS011;66399;52.322;20.980;2023-02-28T14:55:03;3.80;;;1.40;;
77326;SDS011;66399;52.322;20.980;2023-02-28T14:59:23;7.00;;;3.20;;
77326;SDS011;66399;52.322;20.980;2023-02-28T15:17:08;7.60;;;3.10;;
77326;SDS011;66399;52.322;20.980;2023-02-28T15:21:14;11.80;;;3.60;;
77326;SDS011;66399;52.322;20.980;2023-02-28T15:25:26;9.90;;;3.80;;
77326;SDS011;66399;52.322;20.980;2023-02-28T15:29:32;6.40;;;3.20;;
77326;SDS011;66399;52.322;20.980;2023-02-28T15:33:52;5.60;;;2.70;;
77326;SDS011;66399;52.322;20.980;2023-02-28T15:38:00;7.20;;;3.30;;
77326;SDS011;66399;52.322;20.980;2023-02-28T15:46:27;8.90;;;3.90;;
77326;SDS011;66399;52.322;20.980;2023-02-28T15:50:32;9.00;;;3.90;;
77326;SDS011;66399;52.322;20.980;2023-02-28T15:58:54;6.30;;;2.90;;
77326;SDS011;66399;52.322;20.980;2023-02-28T16:03:40;7.50;;;3.60;;
77326;SDS011;66399;52.322;20.980;2023-02-28T16:07:45;9.50;;;4.00;;
77326;SDS011;66399;52.322;20.980;2023-02-28T16:11:52;8.30;;;3.90;;
77326;SDS011;66399;52.322;20.980;2023-02-28T16:20:12;11.50;;;4.90;;
77326;SDS011;66399;52.322;20.980;2023-02-28T16:24:17;13.70;;;5.00;;
77326;SDS011;66399;52.322;20.980;2023-02-28T16:28:24;12.40;;;5.10;;
77326;SDS011;66399;52.322;20.980;2023-02-28T16:32:30;15.10;;;5.40;;
77326;SDS011;66399;52.322;20.980;2023-02-28T16:36:36;10.20;;;4.90;;
77326;SDS011;66399;52.322;20.980;2023-02-28T16:40:41;12.40;;;4.60;;
77326;SDS011;66399;52.322;20.980;2023-02-28T16:44:47;10.80;;;4.20;;
77326;SDS011;66399;52.322;20.980;2023-02-28T16:48:52;11.00;;;4.90;;
77326;SDS011;66399;52.322;20.980;2023-02-28T16:52:57;12.60;;;4.50;;
77326;SDS011;66399;52.322;20.980;2023-02-28T16:57:03;15.90;;;5.90;;
77326;SDS011;66399;52.322;20.980;2023-02-28T17:01:09;21.10;;;7.40;;
77326;SDS011;66399;52.322;20.980;2023-02-28T17:05:14;13.20;;;6.00;;
77326;SDS011;66399;52.322;20.980;2023-02-28T17:13:27;14.30;;;6.00;;
77326;SDS011;66399;52.322;20.980;2023-02-28T17:17:32;18.80;;;6.10;;
77326;SDS011;66399;52.322;20.980;2023-02-28T17:21:37;20.20;;;6.20;;
77326;SDS011;66399;52.322;20.980;2023-02-28T17:25:45;28.00;;;7.40;;
77326;SDS011;66399;52.322;20.980;2023-02-28T17:30:00;19.80;;;6.90;;
77326;SDS011;66399;52.322;20.980;2023-02-28T17:34:06;20.70;;;7.00;;
77326;SDS011;66399;52.322;20.980;2023-02-28T17:38:16;23.80;;;7.50;;
77326;SDS011;66399;52.322;20.980;2023-02-28T17:42:21;19.70;;;7.80;;
77326;SDS011;66399;52.322;20.980;2023-02-28T17:46:27;17.80;;;6.40;;
77326;SDS011;66399;52.322;20.980;2023-02-28T17:50:32;27.50;;;8.50;;
77326;SDS011;66399;52.322;20.980;2023-02-28T17:54:38;19.60;;;7.70;;
77326;SDS011;66399;52.322;20.980;2023-02-28T17:58:43;25.20;;;7.30;;
77326;SDS011;66399;52.322;20.980;2023-02-28T18:02:48;32.70;;;9.80;;
77326;SDS011;66399;52.322;20.980;2023-02-28T18:06:54;28.70;;;10.60;;
77326;SDS011;66399;52.322;20.980;2023-02-28T18:11:03;27.30;;;8.40;;
77326;SDS011;66399;52.322;20.980;2023-02-28T18:15:09;30.50;;;8.70;;
77326;SDS011;66399;52.322;20.980;2023-02-28T18:19:15;26.40;;;8.20;;
77326;SDS011;66399;52.322;20.980;2023-02-28T18:23:20;19.10;;;7.40;;
77326;SDS011;66399;52.322;20.980;2023-02-28T18:27:25;19.00;;;7.70;;
77326;SDS011;66399;52.322;20.980;2023-02-28T18:31:31;24.70;;;7.90;;
77326;SDS011;66399;52.322;20.980;2023-02-28T18:35:36;21.30;;;7.70;;
77326;SDS011;66399;52.322;20.980;2023-02-28T18:39:42;26.10;;;7.50;;
77326;SDS011;66399;52.322;20.980;2023-02-28T18:43:48;26.60;;;8.10;;
77326;SDS011;66399;52.322;20.980;2023-02-28T18:47:56;25.40;;;9.30;;
77326;SDS011;66399;52.322;20.980;2023-02-28T18:52:01;23.70;;;8.30;;
77326;SDS011;66399;52.322;20.980;2023-02-28T18:56:07;35.90;;;9.50;;
77326;SDS011;66399;52.322;20.980;2023-02-28T19:00:14;22.40;;;8.00;;
77326;SDS011;66399;52.322;20.980;2023-02-28T19:04:21;22.00;;;8.80;;
77326;SDS011;66399;52.322;20.980;2023-02-28T19:08:26;27.30;;;8.30;;
77326;SDS011;66399;52.322;20.980;2023-02-28T19:12:33;29.90;;;8.80;;
77326;SDS011;66399;52.322;20.980;2023-02-28T19:16:39;25.40;;;8.00;;
77326;SDS011;66399;52.322;20.980;2023-02-28T19:20:44;20.00;;;7.90;;
77326;SDS011;66399;52.322;20.980;2023-02-28T19:24:50;28.50;;;8.90;;
77326;SDS011;66399;52.322;20.980;2023-02-28T19:28:55;22.60;;;8.60;;
77326;SDS011;66399;52.322;20.980;2023-02-28T19:33:00;17.00;;;7.70;;
77326;SDS011;66399;52.322;20.980;2023-02-28T19:37:06;24.90;;;8.90;;
77326;SDS011;66399;52.322;20.980;2023-02-28T19:41:11;24.90;;;8.10;;
77326;SDS011;66399;52.322;20.980;2023-02-28T19:45:17;24.70;;;8.20;;
77326;SDS011;66399;52.322;20.980;2023-02-28T19:49:22;28.50;;;9.30;;
77326;SDS011;66399;52.322;20.980;2023-02-28T19:53:29;18.90;;;7.90;;
77326;SDS011;66399;52.322;20.980;2023-02-28T19:57:35;19.60;;;8.60;;
77326;SDS011;66399;52.322;20.980;2023-02-28T20:01:40;22.40;;;7.90;;
77326;SDS011;66399;52.322;20.980;2023-02-28T20:05:45;20.10;;;8.10;;
77326;SDS011;66399;52.322;20.980;2023-02-28T20:09:50;22.90;;;7.90;;
77326;SDS011;66399;52.322;20.980;2023-02-28T20:13:56;25.40;;;9.00;;
77326;SDS011;66399;52.322;20.980;2023-02-28T20:18:02;23.70;;;8.30;;
77326;SDS011;66399;52.322;20.980;2023-02-28T20:22:07;22.40;;;8.10;;
77326;SDS011;66399;52.322;20.980;2023-02-28T20:26:14;22.10;;;7.40;;
77326;SDS011;66399;52.322;20.980;2023-02-28T20:30:19;20.80;;;7.30;;
77326;SDS011;66399;52.322;20.980;2023-02-28T20:34:26;29.10;;;9.70;;
77326;SDS011;66399;52.322;20.980;2023-02-28T20:38:32;23.90;;;8.60;;
77326;SDS011;66399;52.322;20.980;2023-02-28T20:42:37;23.40;;;8.10;;
77326;SDS011;66399;52.322;20.980;2023-02-28T20:46:42;20.80;;;8.30;;
77326;SDS011;66399;52.322;20.980;2023-02-28T20:50:48;21.20;;;7.20;;
77326;SDS011;66399;52.322;20.980;2023-02-28T20:54:54;21.00;;;7.30;;
77326;SDS011;66399;52.322;20.980;2023-02-28T20:58:59;18.20;;;7.10;;
77326;SDS011;66399;52.322;20.980;2023-02-28T21:03:04;16.30;;;6.10;;
77326;SDS011;66399;52.322;20.980;2023-02-28T21:07:10;21.60;;;7.30;;
77326;SDS011;66399;52.322;20.980;2023-02-28T21:11:16;16.30;;;6.70;;
77326;SDS011;66399;52.322;20.980;2023-02-28T21:15:21;16.90;;;5.70;;
77326;SDS011;66399;52.322;20.980;2023-02-28T21:19:26;17.20;;;7.10;;
77326;SDS011;66399;52.322;20.980;2023-02-28T21:23:32;16.30;;;5.80;;
77326;SDS011;66399;52.322;20.980;2023-02-28T21:27:37;17.20;;;6.30;;
77326;SDS011;66399;52.322;20.980;2023-02-28T21:31:43;20.90;;;7.00;;
77326;SDS011;66399;52.322;20.980;2023-02-28T21:35:48;21.30;;;5.80;;
77326;SDS011;66399;52.322;20.980;2023-02-28T21:39:53;18.20;;;6.40;;
77326;SDS011;66399;52.322;20.980;2023-02-28T21:43:59;14.00;;;6.20;;
77326;SDS011;66399;52.322;20.980;2023-02-28T21:48:04;15.20;;;5.50;;
77326;SDS011;66399;52.322;20.980;2023-02-28T21:52:09;22.10;;;7.30;;
77326;SDS011;66399;52.322;20.980;2023-02-28T21:56:15;24.30;;;7.40;;
77326;SDS011;66399;52.322;20.980;2023-02-28T22:00:21;22.10;;;7.70;;
77326;SDS011;66399;52.322;20.980;2023-02-28T22:04:26;21.40;;;7.60;;
77326;SDS011;66399;52.322;20.980;2023-02-28T22:08:31;21.60;;;7.70;;
77326;SDS011;66399;52.322;20.980;2023-02-28T22:12:36;21.90;;;7.50;;
77326;SDS011;66399;52.322;20.980;2023-02-28T22:16:42;19.40;;;7.00;;
77326;SDS011;66399;52.322;20.980;2023-02-28T22:20:58;22.40;;;7.70;;
77326;SDS011;66399;52.322;20.980;2023-02-28T22:25:03;19.50;;;7.30;;
77326;SDS011;66399;52.322;20.980;2023-02-28T22:29:09;18.70;;;6.90;;
77326;SDS011;66399;52.322;20.980;2023-02-28T22:33:14;19.70;;;8.50;;
77326;SDS011;66399;52.322;20.980;2023-02-28T22:37:19;21.30;;;8.60;;
77326;SDS011;66399;52.322;20.980;2023-02-28T22:41:25;17.90;;;6.60;;
77326;SDS011;66399;52.322;20.980;2023-02-28T22:45:30;24.10;;;7.30;;
77326;SDS011;66399;52.322;20.980;2023-02-28T22:49:38;23.20;;;7.70;;
77326;SDS011;66399;52.322;20.980;2023-02-28T22:53:45;28.80;;;8.80;;
77326;SDS011;66399;52.322;20.980;2023-02-28T22:57:51;22.00;;;7.70;;
77326;SDS011;66399;52.322;20.980;2023-02-28T23:01:56;24.90;;;9.10;;
77326;SDS011;66399;52.322;20.980;2023-02-28T23:06:03;17.70;;;5.90;;
77326;SDS011;66399;52.322;20.980;2023-02-28T23:10:15;26.10;;;9.00;;
77326;SDS011;66399;52.322;20.980;2023-02-28T23:14:21;21.90;;;9.60;;
77326;SDS011;66399;52.322;20.980;2023-02-28T23:18:27;23.20;;;9.00;;
77326;SDS011;66399;52.322;20.980;2023-02-28T23:22:32;24.70;;;8.20;;
77326;SDS011;66399;52.322;20.980;2023-02-28T23:26:37;21.10;;;7.40;;
77326;SDS011;66399;52.322;20.980;2023-02-28T23:30:43;25.50;;;8.80;;
77326;SDS011;66399;52.322;20.980;2023-02-28T23:34:49;22.80;;;8.40;;
77326;SDS011;66399;52.322;20.980;2023-02-28T23:38:54;24.80;;;7.90;;
77326;SDS011;66399;52.322;20.980;2023-02-28T23:42:59;21.50;;;7.60;;
77326;SDS011;66399;52.322;20.980;2023-02-28T23:47:05;23.00;;;6.70;;
77326;SDS011;66399;52.322;20.980;2023-02-28T23:51:10;19.60;;;7.50;;
77326;SDS011;66399;52.322;20.980;2023-02-28T23:55:19;20.40;;;7.30;;
77326;SDS011;66399;52.322;20.980;2023-02-28T23:59:24;21.30;;;7.60;;
